sensor_id;sensor_type;location;lat;lon;timestamp;P1;durP1;ratioP1;P2;durP2;ratioP2
51814;SDS011;37874;53.158;6.766;2022-12-17T00:01:31;5.45;;;4.05;;
51814;SDS011;37874;53.158;6.766;2022-12-17T00:04:15;5.43;;;4.55;;
51814;SDS011;37874;53.158;6.766;2022-12-17T00:07:00;7.05;;;4.53;;
51814;SDS011;37874;53.158;6.766;2022-12-17T00:09:45;5.65;;;3.92;;
51814;SDS011;37874;53.158;6.766;2022-12-17T00:12:29;6.93;;;4.32;;
51814;SDS011;37874;53.158;6.766;2022-12-17T00:15:13;4.90;;;4.03;;
51814;SDS011;37874;53.158;6.766;2022-12-17T00:18:04;4.78;;;3.65;;
51814;SDS011;37874;53.158;6.766;2022-12-17T00:23:37;4.88;;;3.85;;
51814;SDS011;37874;53.158;6.766;2022-12-17T00:26:22;5.13;;;4.28;;
51814;SDS011;37874;53.158;6.766;2022-12-17T00:29:06;5.80;;;4.40;;
51814;SDS011;37874;53.158;6.766;2022-12-17T00:31:50;5.00;;;4.13;;
51814;SDS011;37874;53.158;6.766;2022-12-17T00:34:35;5.93;;;4.80;;
51814;SDS011;37874;53.158;6.766;2022-12-17T00:37:19;5.15;;;4.15;;
51814;SDS011;37874;53.158;6.766;2022-12-17T00:40:03;5.65;;;4.55;;
51814;SDS011;37874;53.158;6.766;2022-12-17T00:42:57;5.10;;;3.83;;
51814;SDS011;37874;53.158;6.766;2022-12-17T00:45:44;5.13;;;4.22;;
51814;SDS011;37874;53.158;6.766;2022-12-17T00:48:28;5.30;;;4.03;;
51814;SDS011;37874;53.158;6.766;2022-12-17T00:51:13;6.13;;;4.50;;
51814;SDS011;37874;53.158;6.766;2022-12-17T00:53:57;6.03;;;4.80;;
51814;SDS011;37874;53.158;6.766;2022-12-17T00:56:41;5.22;;;4.05;;
51814;SDS011;37874;53.158;6.766;2022-12-17T00:59:26;4.72;;;3.97;;
51814;SDS011;37874;53.158;6.766;2022-12-17T01:02:10;5.55;;;4.18;;
51814;SDS011;37874;53.158;6.766;2022-12-17T01:04:54;5.68;;;4.40;;
51814;SDS011;37874;53.158;6.766;2022-12-17T01:07:38;5.40;;;4.20;;
51814;SDS011;37874;53.158;6.766;2022-12-17T01:10:23;4.47;;;4.00;;
51814;SDS011;37874;53.158;6.766;2022-12-17T01:13:07;5.20;;;4.43;;
51814;SDS011;37874;53.158;6.766;2022-12-17T01:15:54;5.72;;;4.47;;
51814;SDS011;37874;53.158;6.766;2022-12-17T01:18:44;5.38;;;4.28;;
51814;SDS011;37874;53.158;6.766;2022-12-17T01:21:29;5.53;;;4.40;;
51814;SDS011;37874;53.158;6.766;2022-12-17T01:24:13;5.60;;;4.40;;
51814;SDS011;37874;53.158;6.766;2022-12-17T01:26:57;5.90;;;4.50;;
51814;SDS011;37874;53.158;6.766;2022-12-17T01:29:42;6.57;;;4.40;;
51814;SDS011;37874;53.158;6.766;2022-12-17T01:32:26;5.55;;;4.60;;
51814;SDS011;37874;53.158;6.766;2022-12-17T01:35:10;11.45;;;5.10;;
51814;SDS011;37874;53.158;6.766;2022-12-17T01:37:55;6.20;;;4.50;;
51814;SDS011;37874;53.158;6.766;2022-12-17T01:40:39;5.60;;;4.45;;
51814;SDS011;37874;53.158;6.766;2022-12-17T01:43:33;6.55;;;4.90;;
51814;SDS011;37874;53.158;6.766;2022-12-17T01:49:16;5.68;;;4.50;;
51814;SDS011;37874;53.158;6.766;2022-12-17T01:52:02;6.60;;;5.32;;
51814;SDS011;37874;53.158;6.766;2022-12-17T01:54:46;7.93;;;5.43;;
51814;SDS011;37874;53.158;6.766;2022-12-17T01:57:31;6.32;;;4.60;;
51814;SDS011;37874;53.158;6.766;2022-12-17T02:00:16;7.22;;;5.55;;
51814;SDS011;37874;53.158;6.766;2022-12-17T02:03:01;6.97;;;5.20;;
51814;SDS011;37874;53.158;6.766;2022-12-17T02:08:42;7.35;;;5.70;;
51814;SDS011;37874;53.158;6.766;2022-12-17T02:15:04;7.10;;;5.80;;
51814;SDS011;37874;53.158;6.766;2022-12-17T02:18:13;7.88;;;5.53;;
51814;SDS011;37874;53.158;6.766;2022-12-17T02:21:03;8.80;;;6.00;;
51814;SDS011;37874;53.158;6.766;2022-12-17T02:23:55;8.35;;;6.18;;
51814;SDS011;37874;53.158;6.766;2022-12-17T02:26:57;9.25;;;5.70;;
51814;SDS011;37874;53.158;6.766;2022-12-17T02:29:49;6.60;;;5.20;;
51814;SDS011;37874;53.158;6.766;2022-12-17T02:32:36;7.40;;;5.53;;
51814;SDS011;37874;53.158;6.766;2022-12-17T02:35:43;8.63;;;6.18;;
51814;SDS011;37874;53.158;6.766;2022-12-17T02:38:30;8.45;;;6.22;;
51814;SDS011;37874;53.158;6.766;2022-12-17T02:44:13;7.75;;;5.80;;
51814;SDS011;37874;53.158;6.766;2022-12-17T02:46:59;8.65;;;5.97;;
51814;SDS011;37874;53.158;6.766;2022-12-17T02:49:46;10.43;;;7.07;;
51814;SDS011;37874;53.158;6.766;2022-12-17T02:52:31;8.27;;;5.97;;
51814;SDS011;37874;53.158;6.766;2022-12-17T02:55:28;8.77;;;6.88;;
51814;SDS011;37874;53.158;6.766;2022-12-17T02:58:12;8.05;;;6.22;;
51814;SDS011;37874;53.158;6.766;2022-12-17T03:00:56;8.45;;;6.38;;
51814;SDS011;37874;53.158;6.766;2022-12-17T03:03:40;8.13;;;5.90;;
51814;SDS011;37874;53.158;6.766;2022-12-17T03:06:25;7.07;;;5.88;;
51814;SDS011;37874;53.158;6.766;2022-12-17T03:09:09;8.40;;;5.97;;
51814;SDS011;37874;53.158;6.766;2022-12-17T03:11:54;7.75;;;5.70;;
51814;SDS011;37874;53.158;6.766;2022-12-17T03:14:39;8.50;;;6.07;;
51814;SDS011;37874;53.158;6.766;2022-12-17T03:17:23;8.37;;;6.30;;
51814;SDS011;37874;53.158;6.766;2022-12-17T03:20:08;7.55;;;5.80;;
51814;SDS011;37874;53.158;6.766;2022-12-17T03:22:59;9.85;;;6.18;;
51814;SDS011;37874;53.158;6.766;2022-12-17T03:25:47;7.85;;;5.70;;
51814;SDS011;37874;53.158;6.766;2022-12-17T03:28:32;8.52;;;6.00;;
51814;SDS011;37874;53.158;6.766;2022-12-17T03:31:16;8.73;;;6.43;;
51814;SDS011;37874;53.158;6.766;2022-12-17T03:34:17;7.80;;;5.68;;
51814;SDS011;37874;53.158;6.766;2022-12-17T03:37:05;8.57;;;5.97;;
51814;SDS011;37874;53.158;6.766;2022-12-17T03:39:49;7.28;;;5.53;;
51814;SDS011;37874;53.158;6.766;2022-12-17T03:42:34;9.52;;;6.38;;
51814;SDS011;37874;53.158;6.766;2022-12-17T03:45:18;7.75;;;5.90;;
51814;SDS011;37874;53.158;6.766;2022-12-17T03:50:51;8.57;;;6.13;;
51814;SDS011;37874;53.158;6.766;2022-12-17T03:56:20;8.50;;;6.20;;
51814;SDS011;37874;53.158;6.766;2022-12-17T03:59:07;8.38;;;5.88;;
51814;SDS011;37874;53.158;6.766;2022-12-17T04:01:52;7.97;;;5.60;;
51814;SDS011;37874;53.158;6.766;2022-12-17T04:04:36;7.57;;;5.40;;
51814;SDS011;37874;53.158;6.766;2022-12-17T04:07:21;8.30;;;6.17;;
51814;SDS011;37874;53.158;6.766;2022-12-17T04:10:05;8.43;;;6.13;;
51814;SDS011;37874;53.158;6.766;2022-12-17T04:12:50;7.33;;;5.67;;
51814;SDS011;37874;53.158;6.766;2022-12-17T04:15:34;7.88;;;5.60;;
51814;SDS011;37874;53.158;6.766;2022-12-17T04:18:18;8.02;;;5.80;;
51814;SDS011;37874;53.158;6.766;2022-12-17T04:21:03;7.97;;;5.95;;
51814;SDS011;37874;53.158;6.766;2022-12-17T04:23:47;10.27;;;6.40;;
51814;SDS011;37874;53.158;6.766;2022-12-17T04:26:32;8.80;;;6.35;;
51814;SDS011;37874;53.158;6.766;2022-12-17T04:29:16;8.52;;;6.05;;
51814;SDS011;37874;53.158;6.766;2022-12-17T04:32:01;7.97;;;6.03;;
51814;SDS011;37874;53.158;6.766;2022-12-17T04:34:45;7.10;;;5.22;;
51814;SDS011;37874;53.158;6.766;2022-12-17T04:37:29;8.60;;;6.38;;
51814;SDS011;37874;53.158;6.766;2022-12-17T04:40:14;7.90;;;6.13;;
51814;SDS011;37874;53.158;6.766;2022-12-17T04:43:05;9.10;;;6.30;;
51814;SDS011;37874;53.158;6.766;2022-12-17T04:45:50;6.97;;;5.72;;
51814;SDS011;37874;53.158;6.766;2022-12-17T04:48:34;9.10;;;6.30;;
51814;SDS011;37874;53.158;6.766;2022-12-17T04:51:18;8.85;;;6.32;;
51814;SDS011;37874;53.158;6.766;2022-12-17T04:54:03;8.23;;;6.07;;
51814;SDS011;37874;53.158;6.766;2022-12-17T04:56:47;8.10;;;6.00;;
51814;SDS011;37874;53.158;6.766;2022-12-17T04:59:31;7.93;;;6.22;;
51814;SDS011;37874;53.158;6.766;2022-12-17T05:02:16;8.48;;;6.00;;
51814;SDS011;37874;53.158;6.766;2022-12-17T05:05:00;7.97;;;5.85;;
51814;SDS011;37874;53.158;6.766;2022-12-17T05:07:44;7.38;;;5.60;;
51814;SDS011;37874;53.158;6.766;2022-12-17T05:10:29;7.40;;;5.70;;
51814;SDS011;37874;53.158;6.766;2022-12-17T05:13:13;8.75;;;5.95;;
51814;SDS011;37874;53.158;6.766;2022-12-17T05:15:57;7.50;;;5.67;;
51814;SDS011;37874;53.158;6.766;2022-12-17T05:18:42;7.90;;;5.82;;
51814;SDS011;37874;53.158;6.766;2022-12-17T05:21:26;8.60;;;5.28;;
51814;SDS011;37874;53.158;6.766;2022-12-17T05:24:10;7.55;;;5.80;;
51814;SDS011;37874;53.158;6.766;2022-12-17T05:26:55;8.25;;;5.55;;
51814;SDS011;37874;53.158;6.766;2022-12-17T05:29:39;7.95;;;5.63;;
51814;SDS011;37874;53.158;6.766;2022-12-17T05:32:23;6.93;;;5.33;;
51814;SDS011;37874;53.158;6.766;2022-12-17T05:35:08;8.52;;;5.55;;
51814;SDS011;37874;53.158;6.766;2022-12-17T05:37:52;8.15;;;5.68;;
51814;SDS011;37874;53.158;6.766;2022-12-17T05:40:37;8.38;;;6.47;;
51814;SDS011;37874;53.158;6.766;2022-12-17T05:43:21;7.78;;;6.03;;
51814;SDS011;37874;53.158;6.766;2022-12-17T05:46:05;8.37;;;6.27;;
51814;SDS011;37874;53.158;6.766;2022-12-17T05:48:50;8.68;;;6.03;;
51814;SDS011;37874;53.158;6.766;2022-12-17T05:51:34;9.13;;;6.13;;
51814;SDS011;37874;53.158;6.766;2022-12-17T05:54:18;9.02;;;6.15;;
51814;SDS011;37874;53.158;6.766;2022-12-17T05:57:03;8.35;;;6.05;;
51814;SDS011;37874;53.158;6.766;2022-12-17T06:00:07;7.60;;;5.32;;
51814;SDS011;37874;53.158;6.766;2022-12-17T06:03:01;8.25;;;6.25;;
51814;SDS011;37874;53.158;6.766;2022-12-17T06:05:47;7.20;;;5.60;;
51814;SDS011;37874;53.158;6.766;2022-12-17T06:08:35;9.18;;;5.97;;
51814;SDS011;37874;53.158;6.766;2022-12-17T06:11:20;8.40;;;5.53;;
51814;SDS011;37874;53.158;6.766;2022-12-17T06:14:04;8.15;;;5.72;;
51814;SDS011;37874;53.158;6.766;2022-12-17T06:16:49;8.15;;;5.90;;
51814;SDS011;37874;53.158;6.766;2022-12-17T06:19:33;9.13;;;7.00;;
51814;SDS011;37874;53.158;6.766;2022-12-17T06:22:17;11.07;;;8.43;;
51814;SDS011;37874;53.158;6.766;2022-12-17T06:25:02;15.43;;;11.00;;
51814;SDS011;37874;53.158;6.766;2022-12-17T06:27:46;18.40;;;13.75;;
51814;SDS011;37874;53.158;6.766;2022-12-17T06:30:30;18.55;;;14.60;;
51814;SDS011;37874;53.158;6.766;2022-12-17T06:33:15;19.70;;;14.63;;
51814;SDS011;37874;53.158;6.766;2022-12-17T06:35:59;24.73;;;16.67;;
51814;SDS011;37874;53.158;6.766;2022-12-17T06:38:44;23.73;;;17.50;;
51814;SDS011;37874;53.158;6.766;2022-12-17T06:41:28;21.25;;;17.05;;
51814;SDS011;37874;53.158;6.766;2022-12-17T06:44:29;24.83;;;16.98;;
51814;SDS011;37874;53.158;6.766;2022-12-17T06:47:13;20.92;;;16.58;;
51814;SDS011;37874;53.158;6.766;2022-12-17T06:49:57;21.90;;;17.30;;
51814;SDS011;37874;53.158;6.766;2022-12-17T06:52:42;22.70;;;17.65;;
51814;SDS011;37874;53.158;6.766;2022-12-17T06:55:26;22.58;;;17.00;;
51814;SDS011;37874;53.158;6.766;2022-12-17T06:58:10;22.75;;;17.23;;
51814;SDS011;37874;53.158;6.766;2022-12-17T07:00:55;23.55;;;17.88;;
51814;SDS011;37874;53.158;6.766;2022-12-17T07:03:39;21.42;;;16.92;;
51814;SDS011;37874;53.158;6.766;2022-12-17T07:06:23;21.77;;;16.55;;
51814;SDS011;37874;53.158;6.766;2022-12-17T07:09:08;21.10;;;14.43;;
51814;SDS011;37874;53.158;6.766;2022-12-17T07:11:52;19.05;;;14.90;;
51814;SDS011;37874;53.158;6.766;2022-12-17T07:14:36;19.58;;;14.82;;
51814;SDS011;37874;53.158;6.766;2022-12-17T07:17:21;18.92;;;14.98;;
51814;SDS011;37874;53.158;6.766;2022-12-17T07:20:05;22.20;;;15.53;;
51814;SDS011;37874;53.158;6.766;2022-12-17T07:22:54;17.13;;;14.05;;
51814;SDS011;37874;53.158;6.766;2022-12-17T07:25:39;18.48;;;13.95;;
51814;SDS011;37874;53.158;6.766;2022-12-17T07:28:24;17.20;;;13.35;;
51814;SDS011;37874;53.158;6.766;2022-12-17T07:31:08;20.05;;;14.43;;
51814;SDS011;37874;53.158;6.766;2022-12-17T07:33:52;16.92;;;12.98;;
51814;SDS011;37874;53.158;6.766;2022-12-17T07:36:37;15.80;;;12.68;;
51814;SDS011;37874;53.158;6.766;2022-12-17T07:39:21;17.57;;;12.77;;
51814;SDS011;37874;53.158;6.766;2022-12-17T07:42:05;17.10;;;12.20;;
51814;SDS011;37874;53.158;6.766;2022-12-17T07:44:50;16.83;;;12.07;;
51814;SDS011;37874;53.158;6.766;2022-12-17T07:47:34;14.95;;;11.07;;
51814;SDS011;37874;53.158;6.766;2022-12-17T07:50:19;15.27;;;11.52;;
51814;SDS011;37874;53.158;6.766;2022-12-17T07:53:03;15.88;;;11.73;;
51814;SDS011;37874;53.158;6.766;2022-12-17T07:55:48;15.00;;;11.25;;
51814;SDS011;37874;53.158;6.766;2022-12-17T07:58:32;15.07;;;10.97;;
51814;SDS011;37874;53.158;6.766;2022-12-17T08:01:17;14.10;;;9.98;;
51814;SDS011;37874;53.158;6.766;2022-12-17T08:04:01;14.35;;;10.25;;
51814;SDS011;37874;53.158;6.766;2022-12-17T08:06:45;14.60;;;10.17;;
51814;SDS011;37874;53.158;6.766;2022-12-17T08:09:30;13.57;;;9.98;;
51814;SDS011;37874;53.158;6.766;2022-12-17T08:12:14;14.15;;;9.68;;
51814;SDS011;37874;53.158;6.766;2022-12-17T08:14:59;13.32;;;9.93;;
51814;SDS011;37874;53.158;6.766;2022-12-17T08:17:43;13.20;;;9.50;;
51814;SDS011;37874;53.158;6.766;2022-12-17T08:20:27;13.35;;;9.50;;
51814;SDS011;37874;53.158;6.766;2022-12-17T08:23:12;11.93;;;9.13;;
51814;SDS011;37874;53.158;6.766;2022-12-17T08:25:56;12.65;;;9.38;;
51814;SDS011;37874;53.158;6.766;2022-12-17T08:28:40;13.63;;;9.38;;
51814;SDS011;37874;53.158;6.766;2022-12-17T08:31:24;13.15;;;8.55;;
51814;SDS011;37874;53.158;6.766;2022-12-17T08:34:09;12.20;;;8.70;;
51814;SDS011;37874;53.158;6.766;2022-12-17T08:36:53;11.25;;;8.32;;
51814;SDS011;37874;53.158;6.766;2022-12-17T08:39:38;13.25;;;8.20;;
51814;SDS011;37874;53.158;6.766;2022-12-17T08:42:22;11.73;;;8.60;;
51814;SDS011;37874;53.158;6.766;2022-12-17T08:45:07;10.93;;;8.38;;
51814;SDS011;37874;53.158;6.766;2022-12-17T08:47:51;10.10;;;7.53;;
51814;SDS011;37874;53.158;6.766;2022-12-17T08:50:36;10.52;;;8.15;;
51814;SDS011;37874;53.158;6.766;2022-12-17T08:53:20;10.90;;;7.77;;
51814;SDS011;37874;53.158;6.766;2022-12-17T08:56:05;11.32;;;7.90;;
51814;SDS011;37874;53.158;6.766;2022-12-17T08:58:49;11.25;;;8.27;;
51814;SDS011;37874;53.158;6.766;2022-12-17T09:01:33;11.13;;;8.20;;
51814;SDS011;37874;53.158;6.766;2022-12-17T09:04:18;13.00;;;8.80;;
51814;SDS011;37874;53.158;6.766;2022-12-17T09:07:19;10.82;;;8.07;;
51814;SDS011;37874;53.158;6.766;2022-12-17T09:10:03;9.65;;;6.68;;
51814;SDS011;37874;53.158;6.766;2022-12-17T09:12:48;10.65;;;7.28;;
51814;SDS011;37874;53.158;6.766;2022-12-17T09:15:32;10.38;;;7.53;;
51814;SDS011;37874;53.158;6.766;2022-12-17T09:18:17;9.32;;;6.85;;
51814;SDS011;37874;53.158;6.766;2022-12-17T09:21:03;10.63;;;7.13;;
51814;SDS011;37874;53.158;6.766;2022-12-17T09:23:48;9.75;;;7.28;;
51814;SDS011;37874;53.158;6.766;2022-12-17T09:26:32;12.27;;;7.13;;
51814;SDS011;37874;53.158;6.766;2022-12-17T09:29:16;11.00;;;7.70;;
51814;SDS011;37874;53.158;6.766;2022-12-17T11:36:11;8.43;;;5.97;;
51814;SDS011;37874;53.158;6.766;2022-12-17T11:42:06;8.05;;;6.43;;
51814;SDS011;37874;53.158;6.766;2022-12-17T11:45:01;8.45;;;6.20;;
51814;SDS011;37874;53.158;6.766;2022-12-17T11:47:51;7.78;;;5.78;;
51814;SDS011;37874;53.158;6.766;2022-12-17T11:50:40;8.27;;;5.72;;
51814;SDS011;37874;53.158;6.766;2022-12-17T11:53:37;9.50;;;6.20;;
51814;SDS011;37874;53.158;6.766;2022-12-17T11:56:43;8.07;;;5.95;;
51814;SDS011;37874;53.158;6.766;2022-12-17T11:59:39;9.38;;;6.55;;
51814;SDS011;37874;53.158;6.766;2022-12-17T12:08:34;8.32;;;6.00;;
51814;SDS011;37874;53.158;6.766;2022-12-17T12:14:23;8.40;;;6.30;;
51814;SDS011;37874;53.158;6.766;2022-12-17T12:26:10;9.30;;;6.35;;
51814;SDS011;37874;53.158;6.766;2022-12-17T12:32:11;8.80;;;6.43;;
51814;SDS011;37874;53.158;6.766;2022-12-17T12:35:01;8.95;;;6.32;;
51814;SDS011;37874;53.158;6.766;2022-12-17T12:37:47;9.18;;;7.05;;
51814;SDS011;37874;53.158;6.766;2022-12-17T12:40:39;7.82;;;6.38;;
51814;SDS011;37874;53.158;6.766;2022-12-17T12:43:43;10.15;;;6.68;;
51814;SDS011;37874;53.158;6.766;2022-12-17T12:46:43;7.70;;;5.65;;
51814;SDS011;37874;53.158;6.766;2022-12-17T12:52:42;9.57;;;6.75;;
51814;SDS011;37874;53.158;6.766;2022-12-17T12:55:39;8.80;;;6.05;;
51814;SDS011;37874;53.158;6.766;2022-12-17T13:01:10;7.75;;;5.85;;
51814;SDS011;37874;53.158;6.766;2022-12-17T13:03:56;8.23;;;5.93;;
51814;SDS011;37874;53.158;6.766;2022-12-17T13:11:44;8.13;;;6.13;;
51814;SDS011;37874;53.158;6.766;2022-12-17T13:16:55;6.93;;;5.43;;
51814;SDS011;37874;53.158;6.766;2022-12-17T13:19:39;7.82;;;5.97;;
51814;SDS011;37874;53.158;6.766;2022-12-17T13:24:41;8.02;;;6.13;;
51814;SDS011;37874;53.158;6.766;2022-12-17T13:27:30;8.85;;;6.30;;
51814;SDS011;37874;53.158;6.766;2022-12-17T13:30:18;8.20;;;6.30;;
51814;SDS011;37874;53.158;6.766;2022-12-17T13:32:49;7.20;;;5.47;;
51814;SDS011;37874;53.158;6.766;2022-12-17T13:35:30;8.18;;;5.85;;
51814;SDS011;37874;53.158;6.766;2022-12-17T13:38:13;8.77;;;6.20;;
51814;SDS011;37874;53.158;6.766;2022-12-17T13:43:50;8.05;;;6.05;;
51814;SDS011;37874;53.158;6.766;2022-12-17T13:48:58;9.00;;;6.22;;
51814;SDS011;37874;53.158;6.766;2022-12-17T13:51:29;7.85;;;6.10;;
51814;SDS011;37874;53.158;6.766;2022-12-17T13:54:01;7.50;;;5.97;;
51814;SDS011;37874;53.158;6.766;2022-12-17T13:58:58;8.00;;;6.43;;
51814;SDS011;37874;53.158;6.766;2022-12-17T14:01:26;8.32;;;6.18;;
51814;SDS011;37874;53.158;6.766;2022-12-17T14:04:02;8.02;;;6.25;;
51814;SDS011;37874;53.158;6.766;2022-12-17T14:06:29;7.03;;;5.63;;
51814;SDS011;37874;53.158;6.766;2022-12-17T14:08:58;7.78;;;6.18;;
51814;SDS011;37874;53.158;6.766;2022-12-17T14:11:24;7.82;;;6.03;;
51814;SDS011;37874;53.158;6.766;2022-12-17T14:16:40;7.72;;;5.95;;
51814;SDS011;37874;53.158;6.766;2022-12-17T14:19:07;8.32;;;5.90;;
51814;SDS011;37874;53.158;6.766;2022-12-17T14:21:34;8.02;;;5.78;;
51814;SDS011;37874;53.158;6.766;2022-12-17T14:24:01;8.20;;;6.57;;
51814;SDS011;37874;53.158;6.766;2022-12-17T14:26:28;8.57;;;6.28;;
51814;SDS011;37874;53.158;6.766;2022-12-17T14:28:56;7.85;;;6.15;;
51814;SDS011;37874;53.158;6.766;2022-12-17T14:31:23;8.13;;;6.25;;
51814;SDS011;37874;53.158;6.766;2022-12-17T14:36:40;7.90;;;6.20;;
51814;SDS011;37874;53.158;6.766;2022-12-17T14:39:21;8.05;;;6.05;;
51814;SDS011;37874;53.158;6.766;2022-12-17T14:41:48;8.35;;;6.32;;
51814;SDS011;37874;53.158;6.766;2022-12-17T14:44:32;7.65;;;5.90;;
51814;SDS011;37874;53.158;6.766;2022-12-17T14:47:16;7.43;;;5.93;;
51814;SDS011;37874;53.158;6.766;2022-12-17T14:49:58;8.02;;;5.88;;
51814;SDS011;37874;53.158;6.766;2022-12-17T14:52:26;8.13;;;5.78;;
51814;SDS011;37874;53.158;6.766;2022-12-17T14:55:20;8.32;;;5.88;;
51814;SDS011;37874;53.158;6.766;2022-12-17T14:57:49;7.18;;;5.90;;
51814;SDS011;37874;53.158;6.766;2022-12-17T15:00:15;7.30;;;5.90;;
51814;SDS011;37874;53.158;6.766;2022-12-17T15:02:41;7.55;;;5.50;;
51814;SDS011;37874;53.158;6.766;2022-12-17T15:05:11;8.73;;;6.30;;
51814;SDS011;37874;53.158;6.766;2022-12-17T15:07:39;7.43;;;5.68;;
51814;SDS011;37874;53.158;6.766;2022-12-17T15:10:08;8.30;;;6.20;;
51814;SDS011;37874;53.158;6.766;2022-12-17T15:12:35;7.38;;;5.85;;
51814;SDS011;37874;53.158;6.766;2022-12-17T15:15:01;8.55;;;6.20;;
51814;SDS011;37874;53.158;6.766;2022-12-17T15:17:27;8.55;;;6.32;;
51814;SDS011;37874;53.158;6.766;2022-12-17T15:19:52;8.05;;;5.95;;
51814;SDS011;37874;53.158;6.766;2022-12-17T15:22:18;7.28;;;5.75;;
51814;SDS011;37874;53.158;6.766;2022-12-17T15:24:43;7.57;;;5.60;;
51814;SDS011;37874;53.158;6.766;2022-12-17T15:27:13;8.27;;;6.25;;
51814;SDS011;37874;53.158;6.766;2022-12-17T15:29:40;7.22;;;5.78;;
51814;SDS011;37874;53.158;6.766;2022-12-17T15:32:08;7.75;;;5.70;;
51814;SDS011;37874;53.158;6.766;2022-12-17T15:34:42;7.00;;;5.65;;
51814;SDS011;37874;53.158;6.766;2022-12-17T15:37:07;7.88;;;5.97;;
51814;SDS011;37874;53.158;6.766;2022-12-17T15:39:33;7.40;;;5.57;;
51814;SDS011;37874;53.158;6.766;2022-12-17T15:41:58;7.43;;;6.10;;
51814;SDS011;37874;53.158;6.766;2022-12-17T15:44:43;7.30;;;5.82;;
51814;SDS011;37874;53.158;6.766;2022-12-17T15:47:08;7.32;;;5.68;;
51814;SDS011;37874;53.158;6.766;2022-12-17T15:49:34;7.50;;;5.60;;
51814;SDS011;37874;53.158;6.766;2022-12-17T15:51:59;6.63;;;5.38;;
51814;SDS011;37874;53.158;6.766;2022-12-17T15:54:25;7.72;;;5.93;;
51814;SDS011;37874;53.158;6.766;2022-12-17T15:56:51;7.43;;;5.70;;
51814;SDS011;37874;53.158;6.766;2022-12-17T15:59:18;7.78;;;5.80;;
51814;SDS011;37874;53.158;6.766;2022-12-17T16:01:43;7.28;;;5.45;;
51814;SDS011;37874;53.158;6.766;2022-12-17T16:04:09;8.25;;;6.00;;
51814;SDS011;37874;53.158;6.766;2022-12-17T16:06:34;8.77;;;6.07;;
51814;SDS011;37874;53.158;6.766;2022-12-17T16:09:00;8.20;;;5.70;;
51814;SDS011;37874;53.158;6.766;2022-12-17T16:11:25;7.47;;;5.90;;
51814;SDS011;37874;53.158;6.766;2022-12-17T16:13:54;7.90;;;5.88;;
51814;SDS011;37874;53.158;6.766;2022-12-17T16:16:20;9.00;;;6.13;;
51814;SDS011;37874;53.158;6.766;2022-12-17T16:18:46;7.30;;;5.53;;
51814;SDS011;37874;53.158;6.766;2022-12-17T16:21:12;7.78;;;5.80;;
51814;SDS011;37874;53.158;6.766;2022-12-17T16:23:38;7.55;;;5.68;;
51814;SDS011;37874;53.158;6.766;2022-12-17T16:26:04;7.40;;;5.53;;
51814;SDS011;37874;53.158;6.766;2022-12-17T16:28:32;8.02;;;5.93;;
51814;SDS011;37874;53.158;6.766;2022-12-17T16:31:02;8.05;;;5.88;;
51814;SDS011;37874;53.158;6.766;2022-12-17T16:33:34;6.95;;;5.78;;
51814;SDS011;37874;53.158;6.766;2022-12-17T16:36:04;7.05;;;5.22;;
51814;SDS011;37874;53.158;6.766;2022-12-17T16:38:31;9.40;;;6.07;;
51814;SDS011;37874;53.158;6.766;2022-12-17T16:40:57;8.57;;;6.13;;
51814;SDS011;37874;53.158;6.766;2022-12-17T16:43:25;7.45;;;5.68;;
51814;SDS011;37874;53.158;6.766;2022-12-17T16:45:51;7.75;;;6.13;;
51814;SDS011;37874;53.158;6.766;2022-12-17T16:48:18;7.18;;;5.40;;
51814;SDS011;37874;53.158;6.766;2022-12-17T16:50:46;8.45;;;5.95;;
51814;SDS011;37874;53.158;6.766;2022-12-17T16:53:12;7.70;;;6.15;;
51814;SDS011;37874;53.158;6.766;2022-12-17T16:55:39;7.78;;;5.63;;
51814;SDS011;37874;53.158;6.766;2022-12-17T16:58:05;8.23;;;5.80;;
51814;SDS011;37874;53.158;6.766;2022-12-17T17:00:31;8.18;;;6.00;;
51814;SDS011;37874;53.158;6.766;2022-12-17T17:02:58;10.43;;;6.45;;
51814;SDS011;37874;53.158;6.766;2022-12-17T17:05:23;7.28;;;5.85;;
51814;SDS011;37874;53.158;6.766;2022-12-17T17:07:49;9.20;;;6.65;;
51814;SDS011;37874;53.158;6.766;2022-12-17T17:10:14;8.98;;;6.75;;
51814;SDS011;37874;53.158;6.766;2022-12-17T17:12:40;9.43;;;6.38;;
51814;SDS011;37874;53.158;6.766;2022-12-17T17:15:06;9.25;;;6.82;;
51814;SDS011;37874;53.158;6.766;2022-12-17T17:17:32;8.88;;;6.03;;
51814;SDS011;37874;53.158;6.766;2022-12-17T17:19:57;8.05;;;5.72;;
51814;SDS011;37874;53.158;6.766;2022-12-17T17:22:23;7.90;;;5.53;;
51814;SDS011;37874;53.158;6.766;2022-12-17T17:24:48;9.30;;;6.22;;
51814;SDS011;37874;53.158;6.766;2022-12-17T17:27:14;8.05;;;6.18;;
51814;SDS011;37874;53.158;6.766;2022-12-17T17:29:39;8.23;;;5.88;;
51814;SDS011;37874;53.158;6.766;2022-12-17T17:32:05;9.27;;;6.05;;
51814;SDS011;37874;53.158;6.766;2022-12-17T17:34:30;7.97;;;5.95;;
51814;SDS011;37874;53.158;6.766;2022-12-17T17:36:56;8.73;;;5.95;;
51814;SDS011;37874;53.158;6.766;2022-12-17T17:39:22;8.57;;;6.00;;
51814;SDS011;37874;53.158;6.766;2022-12-17T17:41:47;8.63;;;6.00;;
51814;SDS011;37874;53.158;6.766;2022-12-17T17:44:13;7.72;;;5.80;;
51814;SDS011;37874;53.158;6.766;2022-12-17T17:46:39;9.10;;;6.13;;
51814;SDS011;37874;53.158;6.766;2022-12-17T17:49:05;8.30;;;5.90;;
51814;SDS011;37874;53.158;6.766;2022-12-17T17:51:33;9.35;;;6.32;;
51814;SDS011;37874;53.158;6.766;2022-12-17T17:54:02;9.45;;;6.45;;
51814;SDS011;37874;53.158;6.766;2022-12-17T17:56:29;9.35;;;6.45;;
51814;SDS011;37874;53.158;6.766;2022-12-17T17:59:01;9.18;;;6.68;;
51814;SDS011;37874;53.158;6.766;2022-12-17T18:01:31;9.90;;;6.93;;
51814;SDS011;37874;53.158;6.766;2022-12-17T18:03:59;10.10;;;7.10;;
51814;SDS011;37874;53.158;6.766;2022-12-17T18:06:26;8.35;;;6.55;;
51814;SDS011;37874;53.158;6.766;2022-12-17T18:08:54;9.27;;;5.78;;
51814;SDS011;37874;53.158;6.766;2022-12-17T18:11:21;9.32;;;6.47;;
51814;SDS011;37874;53.158;6.766;2022-12-17T18:13:48;10.23;;;6.38;;
51814;SDS011;37874;53.158;6.766;2022-12-17T18:16:24;9.07;;;6.57;;
51814;SDS011;37874;53.158;6.766;2022-12-17T18:18:53;8.80;;;6.22;;
51814;SDS011;37874;53.158;6.766;2022-12-17T18:21:21;7.85;;;5.65;;
51814;SDS011;37874;53.158;6.766;2022-12-17T18:23:47;7.68;;;5.78;;
51814;SDS011;37874;53.158;6.766;2022-12-17T18:26:18;10.52;;;6.47;;
51814;SDS011;37874;53.158;6.766;2022-12-17T18:28:45;9.18;;;6.43;;
51814;SDS011;37874;53.158;6.766;2022-12-17T18:31:29;7.85;;;5.85;;
51814;SDS011;37874;53.158;6.766;2022-12-17T18:33:56;8.82;;;6.32;;
51814;SDS011;37874;53.158;6.766;2022-12-17T18:36:34;8.23;;;6.00;;
51814;SDS011;37874;53.158;6.766;2022-12-17T18:39:10;9.57;;;6.65;;
51814;SDS011;37874;53.158;6.766;2022-12-17T18:41:36;8.10;;;5.43;;
51814;SDS011;37874;53.158;6.766;2022-12-17T18:44:20;9.83;;;7.13;;
51814;SDS011;37874;53.158;6.766;2022-12-17T18:46:46;8.68;;;6.50;;
51814;SDS011;37874;53.158;6.766;2022-12-17T18:49:13;9.82;;;6.97;;
51814;SDS011;37874;53.158;6.766;2022-12-17T18:51:41;8.43;;;6.25;;
51814;SDS011;37874;53.158;6.766;2022-12-17T18:54:09;9.02;;;6.65;;
51814;SDS011;37874;53.158;6.766;2022-12-17T18:56:37;8.88;;;6.45;;
51814;SDS011;37874;53.158;6.766;2022-12-17T18:59:03;10.20;;;6.57;;
51814;SDS011;37874;53.158;6.766;2022-12-17T19:01:31;9.43;;;6.70;;
51814;SDS011;37874;53.158;6.766;2022-12-17T19:04:00;9.40;;;6.43;;
51814;SDS011;37874;53.158;6.766;2022-12-17T19:06:27;9.10;;;6.53;;
51814;SDS011;37874;53.158;6.766;2022-12-17T19:08:53;9.15;;;7.00;;
51814;SDS011;37874;53.158;6.766;2022-12-17T19:11:19;8.05;;;6.25;;
51814;SDS011;37874;53.158;6.766;2022-12-17T19:13:46;8.63;;;6.35;;
51814;SDS011;37874;53.158;6.766;2022-12-17T19:16:13;10.05;;;7.20;;